Time;durP1;ratioP1;P1;durP2;ratioP2;P2;SDS_P1;SDS_P2;PMS_P1;PMS_P2;Temp;Humidity;BMP_temperature;BMP_pressure;BME280_temperature;BME280_humidity;BME280_pressure;Samples;Min_cycle;Max_cycle;Signal;HPM_P1;HPM_P2
2022/08/06 00:01:49;;;;;;;21.95;20.48;;;20.90;99.90;;;;;;4996795;28;20747;-79
2022/08/06 00:04:15;;;;;;;83.53;79.35;;;20.80;99.90;;;;;;5002978;28;20180;-79
2022/08/06 00:06:40;;;;;;;176.85;168.10;;;20.70;99.90;;;;;;4999816;28;20206;-80
2022/08/06 00:09:07;;;;;;;303.50;288.10;;;20.60;99.90;;;;;;4997870;28;20203;-80
2022/08/06 00:11:32;;;;;;;304.17;288.92;;;20.40;99.90;;;;;;5015789;28;20191;-80
2022/08/06 00:13:58;;;;;;;287.27;272.92;;;20.40;99.90;;;;;;4998464;28;20184;-80
2022/08/06 00:16:25;;;;;;;259.67;246.85;;;20.30;99.90;;;;;;5012003;28;20207;-81
2022/08/06 00:18:50;;;;;;;215.00;204.32;;;20.30;99.90;;;;;;5011658;28;20203;-81
2022/08/06 00:21:17;;;;;;;174.52;165.70;;;20.30;99.90;;;;;;4996425;28;20207;-80
2022/08/06 00:23:43;;;;;;;182.80;173.70;;;20.40;99.90;;;;;;4996742;28;20252;-81
2022/08/06 00:26:09;;;;;;;129.20;122.80;;;20.40;99.90;;;;;;4994486;28;20433;-81
2022/08/06 00:28:35;;;;;;;113.68;108.15;;;20.40;99.90;;;;;;4994422;28;20172;-80
2022/08/06 00:31:04;;;;;;;49.38;46.35;;;20.40;99.90;;;;;;4995663;28;20192;-81
2022/08/06 00:33:30;;;;;;;23.92;22.63;;;20.40;99.90;;;;;;4996988;28;20188;-81
2022/08/06 00:35:56;;;;;;;24.17;22.88;;;20.40;99.90;;;;;;4995762;28;20200;-81
2022/08/06 00:38:22;;;;;;;21.85;20.75;;;20.50;99.90;;;;;;5012357;28;20246;-81
2022/08/06 00:40:49;;;;;;;23.02;21.83;;;20.40;99.90;;;;;;5008958;28;20200;-79
2022/08/06 00:43:15;;;;;;;27.08;25.75;;;20.40;99.90;;;;;;5007036;28;20207;-81
2022/08/06 00:45:41;;;;;;;24.50;23.15;;;20.40;99.90;;;;;;5016016;28;20263;-79
2022/08/06 00:48:06;;;;;;;27.25;25.70;;;20.50;99.90;;;;;;5000512;28;20180;-81
2022/08/06 00:50:34;;;;;;;25.05;23.75;;;20.40;99.90;;;;;;5000051;28;20192;-82
2022/08/06 00:53:00;;;;;;;11.13;10.52;;;20.50;99.90;;;;;;4999535;28;20668;-81
2022/08/06 00:55:26;;;;;;;23.08;21.88;;;20.50;99.90;;;;;;4999497;28;20243;-82
2022/08/06 00:57:52;;;;;;;52.90;50.20;;;20.40;99.90;;;;;;5000055;28;20184;-82
2022/08/06 01:00:18;;;;;;;39.95;37.80;;;20.50;99.90;;;;;;5016887;28;20234;-83
2022/08/06 01:02:44;;;;;;;38.85;36.42;;;20.50;99.90;;;;;;4998905;28;20180;-81
2022/08/06 01:05:10;;;;;;;25.20;23.85;;;20.30;99.90;;;;;;5000039;28;20676;-80
2022/08/06 01:07:36;;;;;;;31.52;29.80;;;20.30;99.90;;;;;;5000584;28;20184;-81
2022/08/06 01:10:03;;;;;;;29.42;27.90;;;20.20;99.90;;;;;;5005391;28;20193;-80
2022/08/06 01:12:29;;;;;;;86.18;82.00;;;20.20;99.90;;;;;;5005844;28;20388;-79
2022/08/06 01:14:54;;;;;;;131.18;124.65;;;20.20;99.90;;;;;;5007216;28;20772;-81
2022/08/06 01:17:32;;;;;;;128.60;122.25;;;20.10;99.90;;;;;;5001040;28;20212;-80
2022/08/06 01:20:03;;;;;;;115.80;110.07;;;20.00;99.90;;;;;;5000855;28;20207;-81
2022/08/06 01:23:00;;;;;;;132.48;125.97;;;19.90;99.90;;;;;;5001245;28;20180;-80
2022/08/06 01:26:14;;;;;;;107.93;102.50;;;19.80;99.90;;;;;;5000020;28;20185;-80
2022/08/06 01:29:05;;;;;;;99.70;94.90;;;19.70;99.90;;;;;;5010450;23;20239;-77
2022/08/06 01:31:59;;;;;;;69.70;66.15;;;19.70;99.90;;;;;;5010918;28;20191;-77
2022/08/06 01:34:33;;;;;;;51.40;48.63;;;19.70;99.90;;;;;;5015606;28;20565;-77
2022/08/06 01:37:08;;;;;;;32.67;31.02;;;19.80;99.90;;;;;;5015177;28;20179;-77
2022/08/06 01:39:37;;;;;;;25.27;23.98;;;19.90;99.90;;;;;;5014178;28;20245;-77
2022/08/06 01:42:05;;;;;;;34.08;32.13;;;19.80;99.90;;;;;;5013997;28;20261;-77
2022/08/06 01:44:34;;;;;;;33.10;31.30;;;19.90;99.90;;;;;;5013677;28;20230;-77
2022/08/06 01:47:05;;;;;;;26.23;24.73;;;19.90;99.90;;;;;;5013383;28;20722;-77
2022/08/06 01:49:36;;;;;;;32.40;30.80;;;19.90;99.90;;;;;;5014310;28;20282;-77
2022/08/06 01:52:04;;;;;;;35.88;34.15;;;20.00;99.90;;;;;;5014150;28;20187;-77
2022/08/06 01:54:34;;;;;;;52.13;49.50;;;20.00;99.90;;;;;;5013886;28;20660;-77
2022/08/06 01:57:01;;;;;;;44.53;42.00;;;19.90;99.90;;;;;;5013096;28;20195;-77
2022/08/06 01:59:34;;;;;;;39.17;37.22;;;19.70;99.90;;;;;;4996103;28;20278;-77
2022/08/06 02:02:03;;;;;;;38.53;36.60;;;19.70;99.90;;;;;;4996838;28;20215;-77
2022/08/06 02:04:34;;;;;;;39.25;37.30;;;19.70;99.90;;;;;;5014290;28;20198;-77
2022/08/06 02:07:03;;;;;;;12.68;11.95;;;19.80;99.90;;;;;;4995680;28;20226;-78
2022/08/06 02:09:31;;;;;;;8.18;7.50;;;19.80;99.90;;;;;;5013363;28;20172;-77
2022/08/06 02:12:06;;;;;;;29.75;28.23;;;19.80;99.90;;;;;;5013565;28;20196;-77
2022/08/06 02:14:36;;;;;;;48.00;45.67;;;19.80;99.90;;;;;;4995639;28;20249;-77
2022/08/06 02:17:03;;;;;;;46.30;43.83;;;19.80;99.90;;;;;;4994130;28;20188;-77
2022/08/06 02:19:30;;;;;;;35.63;33.80;;;19.70;99.90;;;;;;5013264;28;20648;-77
2022/08/06 02:21:59;;;;;;;9.13;8.68;;;19.80;99.90;;;;;;5013150;28;20207;-77
2022/08/06 02:24:28;;;;;;;6.85;6.55;;;19.80;99.90;;;;;;5012700;28;20172;-77
2022/08/06 02:26:58;;;;;;;5.20;4.72;;;19.70;99.90;;;;;;4994952;28;20303;-77
2022/08/06 02:29:26;;;;;;;12.38;11.73;;;19.80;99.90;;;;;;5013282;28;20206;-77
2022/08/06 02:31:52;;;;;;;16.00;15.25;;;19.80;99.90;;;;;;4995924;28;20664;-77
2022/08/06 02:34:22;;;;;;;17.98;16.92;;;19.70;99.90;;;;;;5012845;28;20270;-77
2022/08/06 02:37:15;;;;;;;18.50;17.40;;;19.70;99.90;;;;;;5012254;28;20194;-78
2022/08/06 02:39:48;;;;;;;16.77;16.00;;;19.70;99.90;;;;;;4993018;28;20203;-77
2022/08/06 02:42:41;;;;;;;22.52;21.33;;;19.80;99.90;;;;;;5013005;28;20594;-78
2022/08/06 02:45:17;;;;;;;23.77;22.50;;;19.80;99.90;;;;;;4994673;28;20196;-72
2022/08/06 02:47:52;;;;;;;18.10;17.20;;;19.80;99.90;;;;;;5009873;28;20211;-72
2022/08/06 02:50:22;;;;;;;18.63;17.77;;;19.80;99.90;;;;;;4993250;28;20203;-72
2022/08/06 02:52:54;;;;;;;21.45;20.40;;;19.80;99.90;;;;;;4994744;28;20241;-72
2022/08/06 02:55:25;;;;;;;23.52;22.13;;;19.60;99.90;;;;;;5012234;28;20562;-72
2022/08/06 02:58:04;;;;;;;15.23;14.43;;;19.70;99.90;;;;;;5010670;28;20211;-72
2022/08/06 03:00:33;;;;;;;12.25;11.50;;;19.70;99.90;;;;;;4995671;28;20204;-72
2022/08/06 03:03:02;;;;;;;15.40;14.65;;;19.70;99.90;;;;;;5012314;28;20172;-71
2022/08/06 03:05:29;;;;;;;20.02;19.00;;;19.70;99.90;;;;;;5010868;28;20183;-72
2022/08/06 03:07:58;;;;;;;26.45;19.60;;;19.60;99.90;;;;;;5010831;28;20200;-72
2022/08/06 03:10:26;;;;;;;19.27;18.27;;;19.70;99.90;;;;;;5012159;28;20182;-72
2022/08/06 03:12:54;;;;;;;19.13;18.13;;;19.70;99.90;;;;;;5011387;28;20593;-72
2022/08/06 03:15:22;;;;;;;19.23;18.27;;;19.60;99.90;;;;;;5012021;28;20180;-72
2022/08/06 03:17:50;;;;;;;20.40;19.45;;;19.60;99.90;;;;;;5010524;28;20250;-72
2022/08/06 03:20:20;;;;;;;18.70;17.73;;;19.60;99.90;;;;;;5011200;28;20183;-71
2022/08/06 03:22:51;;;;;;;20.83;19.33;;;19.50;99.90;;;;;;4985484;28;20212;-72
2022/08/06 03:25:17;;;;;;;18.08;16.98;;;19.50;99.90;;;;;;5035016;28;20186;-72
2022/08/06 03:27:45;;;;;;;17.02;16.17;;;19.40;99.90;;;;;;5030167;28;20215;-72
2022/08/06 03:30:16;;;;;;;15.75;14.85;;;19.40;99.90;;;;;;4994465;28;20187;-71
2022/08/06 03:32:43;;;;;;;11.98;11.38;;;19.40;99.90;;;;;;5011583;28;20528;-72
2022/08/06 03:35:10;;;;;;;11.70;11.18;;;19.40;99.90;;;;;;5010826;28;20176;-72
2022/08/06 03:37:36;;;;;;;10.68;10.18;;;19.40;99.90;;;;;;5011119;28;20207;-72
2022/08/06 03:40:04;;;;;;;9.52;9.02;;;19.40;99.90;;;;;;5011636;28;20329;-71
2022/08/06 03:42:31;;;;;;;7.82;7.43;;;19.40;99.90;;;;;;5010960;28;20237;-72
2022/08/06 03:44:56;;;;;;;10.15;9.40;;;19.30;99.90;;;;;;5011293;28;20262;-72
2022/08/06 03:47:31;;;;;;;13.55;12.65;;;19.30;99.90;;;;;;5010695;28;20262;-72
2022/08/06 03:50:05;;;;;;;7.80;7.40;;;19.30;99.90;;;;;;5023749;28;20183;-71
2022/08/06 03:52:35;;;;;;;10.45;9.73;;;19.30;99.90;;;;;;5014752;28;20214;-71
2022/08/06 03:55:07;;;;;;;15.95;15.23;;;19.30;99.90;;;;;;5022488;28;20699;-72
2022/08/06 03:57:38;;;;;;;17.65;16.75;;;19.30;99.90;;;;;;5010660;28;20754;-72
2022/08/06 04:00:06;;;;;;;18.40;17.40;;;19.30;99.90;;;;;;5011645;28;20180;-72
2022/08/06 04:02:40;;;;;;;15.15;14.35;;;19.20;99.90;;;;;;4993753;28;20616;-72
2022/08/06 04:05:07;;;;;;;15.75;14.77;;;19.20;99.90;;;;;;5010374;28;20179;-72
2022/08/06 04:07:34;;;;;;;15.97;15.13;;;19.20;99.90;;;;;;5010255;28;20270;-71
2022/08/06 04:10:01;;;;;;;12.02;11.23;;;19.10;99.90;;;;;;5011031;28;20739;-72
2022/08/06 04:12:29;;;;;;;10.10;9.43;;;19.10;99.90;;;;;;5010488;28;20181;-71
2022/08/06 04:14:55;;;;;;;8.18;7.75;;;19.00;99.90;;;;;;4993281;28;20183;-73
2022/08/06 04:17:22;;;;;;;4.97;4.63;;;18.90;99.90;;;;;;4993005;28;20203;-71
2022/08/06 04:19:49;;;;;;;6.33;5.93;;;18.90;99.90;;;;;;4993108;28;20241;-72
2022/08/06 04:22:15;;;;;;;9.20;8.57;;;18.90;99.90;;;;;;5010938;28;20211;-71
2022/08/06 04:24:41;;;;;;;13.40;12.70;;;18.80;99.90;;;;;;5010490;28;20245;-72
2022/08/06 04:27:08;;;;;;;16.50;15.37;;;18.80;99.90;;;;;;4985233;28;20232;-72
2022/08/06 04:29:38;;;;;;;12.47;11.90;;;18.90;99.90;;;;;;4990963;28;20189;-72
2022/08/06 04:32:05;;;;;;;24.93;23.73;;;18.90;99.90;;;;;;4990562;28;20275;-72
2022/08/06 04:34:32;;;;;;;31.37;29.53;;;18.90;99.90;;;;;;4984524;28;20791;-72
2022/08/06 04:37:00;;;;;;;31.90;30.10;;;19.00;99.90;;;;;;5009332;28;20278;-72
2022/08/06 04:39:26;;;;;;;26.80;25.40;;;18.90;99.90;;;;;;5012127;28;20206;-71
2022/08/06 04:41:53;;;;;;;25.97;24.33;;;18.90;99.90;;;;;;5014930;28;20298;-72
2022/08/06 04:44:19;;;;;;;25.57;24.03;;;19.00;99.90;;;;;;5014814;28;20332;-72
2022/08/06 04:46:49;;;;;;;26.83;25.13;;;19.10;99.90;;;;;;5013615;28;20590;-71
2022/08/06 04:49:18;;;;;;;32.17;30.30;;;19.10;99.90;;;;;;4997387;28;20183;-73
2022/08/06 04:51:48;;;;;;;28.80;27.30;;;19.20;99.90;;;;;;5014709;28;20179;-72
2022/08/06 04:54:15;;;;;;;11.35;10.60;;;19.30;99.90;;;;;;5014685;28;20665;-72
2022/08/06 04:56:42;;;;;;;5.27;4.77;;;19.30;99.90;;;;;;5014583;28;20213;-72
2022/08/06 04:59:09;;;;;;;4.43;4.23;;;19.40;99.90;;;;;;5014314;28;20742;-72
2022/08/06 05:01:36;;;;;;;10.97;10.37;;;19.60;99.90;;;;;;4997145;28;20211;-72
2022/08/06 05:04:03;;;;;;;16.83;16.02;;;19.70;99.90;;;;;;4996747;28;20602;-72
2022/08/06 05:06:46;;;;;;;23.08;21.98;;;19.80;99.90;;;;;;4996795;28;20180;-72
2022/08/06 05:09:18;;;;;;;19.65;18.75;;;19.80;99.90;;;;;;5007253;28;20188;-72
2022/08/06 05:12:07;;;;;;;26.17;24.15;;;19.80;99.90;;;;;;5008588;28;20195;-78
2022/08/06 05:15:09;;;;;;;22.17;21.00;;;19.80;99.90;;;;;;5013611;28;20275;-74
2022/08/06 05:17:49;;;;;;;21.60;20.27;;;19.70;99.90;;;;;;4981729;28;20217;-75
2022/08/06 05:20:17;;;;;;;21.42;20.20;;;19.70;99.90;;;;;;4996675;28;20183;-74
2022/08/06 05:22:46;;;;;;;19.73;18.73;;;19.50;99.90;;;;;;5014424;28;20263;-74
2022/08/06 05:25:12;;;;;;;17.92;16.92;;;19.40;99.90;;;;;;4995713;28;20267;-74
2022/08/06 05:27:40;;;;;;;18.83;17.93;;;19.40;99.90;;;;;;5013007;28;20223;-73
2022/08/06 05:30:07;;;;;;;19.57;18.57;;;19.40;99.90;;;;;;5013937;28;20599;-74
2022/08/06 05:32:46;;;;;;;14.50;13.60;;;19.30;99.90;;;;;;4995835;28;20187;-74
2022/08/06 05:35:13;;;;;;;15.57;14.73;;;19.20;99.90;;;;;;5013821;28;20187;-73
2022/08/06 05:37:39;;;;;;;13.27;12.43;;;19.30;99.90;;;;;;5013075;28;20199;-74
2022/08/06 05:40:06;;;;;;;12.03;11.43;;;19.30;99.90;;;;;;5013087;28;20858;-74
2022/08/06 05:42:32;;;;;;;13.67;12.97;;;19.30;99.90;;;;;;5013836;28;20180;-74
2022/08/06 05:44:58;;;;;;;12.73;12.03;;;19.40;99.90;;;;;;5013401;28;20190;-74
2022/08/06 05:47:27;;;;;;;13.93;13.03;;;19.40;99.90;;;;;;4994400;28;20196;-74
2022/08/06 05:50:02;;;;;;;19.13;17.93;;;19.50;99.90;;;;;;4995906;28;20672;-74
2022/08/06 05:52:52;;;;;;;18.37;17.47;;;19.60;99.90;;;;;;4995189;28;20645;-74
2022/08/06 05:55:23;;;;;;;20.58;19.58;;;19.70;99.90;;;;;;5013302;28;20199;-74
2022/08/06 05:57:57;;;;;;;24.07;22.87;;;19.90;99.90;;;;;;5012577;28;20238;-74
2022/08/06 06:00:26;;;;;;;24.53;23.23;;;19.90;99.90;;;;;;4995262;28;20183;-74
2022/08/06 06:02:54;;;;;;;26.08;24.58;;;19.80;99.90;;;;;;5013581;28;20207;-75
2022/08/06 06:05:22;;;;;;;23.77;22.42;;;19.90;99.90;;;;;;5013680;28;20180;-75
2022/08/06 06:07:52;;;;;;;27.80;26.53;;;19.90;99.90;;;;;;4994229;28;20202;-73
2022/08/06 06:10:19;;;;;;;21.20;20.20;;;19.90;99.90;;;;;;4995491;28;20733;-73
2022/08/06 06:12:45;;;;;;;19.83;18.83;;;20.00;99.90;;;;;;5013345;28;20182;-73
2022/08/06 06:15:13;;;;;;;21.58;20.40;;;19.90;99.90;;;;;;5012415;28;20180;-73
2022/08/06 06:17:39;;;;;;;16.50;15.63;;;20.00;99.90;;;;;;5012066;28;20200;-73
2022/08/06 06:20:31;;;;;;;22.75;21.63;;;20.50;99.90;;;;;;5013374;28;20183;-73
2022/08/06 06:23:11;;;;;;;19.23;18.08;;;20.70;99.90;;;;;;5012223;28;20752;-73
2022/08/06 06:25:56;;;;;;;12.60;11.90;;;21.40;99.90;;;;;;5012756;28;20205;-74
2022/08/06 06:28:34;;;;;;;9.25;8.75;;;21.60;99.90;;;;;;4996319;28;20222;-77
2022/08/06 06:31:23;;;;;;;5.93;5.65;;;21.70;99.90;;;;;;5036897;28;20183;-73
2022/08/06 06:34:10;;;;;;;5.75;5.55;;;21.80;99.90;;;;;;4993426;28;20199;-72
2022/08/06 06:36:49;;;;;;;9.15;8.63;;;21.90;99.90;;;;;;5012820;28;20534;-73
2022/08/06 06:39:20;;;;;;;7.25;6.45;;;21.70;99.90;;;;;;5012131;28;20271;-73
2022/08/06 06:42:13;;;;;;;13.55;12.90;;;21.70;99.90;;;;;;5012688;28;20211;-71
2022/08/06 06:45:15;;;;;;;11.85;11.20;;;21.90;99.90;;;;;;5005162;28;20261;-72
2022/08/06 06:47:41;;;;;;;15.88;15.07;;;21.90;99.90;;;;;;5012167;28;20199;-72
2022/08/06 06:50:17;;;;;;;16.77;15.70;;;21.90;99.90;;;;;;5012401;28;20760;-72
2022/08/06 06:52:46;;;;;;;13.07;12.40;;;22.00;99.90;;;;;;4994146;28;20253;-72
2022/08/06 06:55:24;;;;;;;12.73;11.93;;;21.80;99.90;;;;;;5012179;28;20179;-72
2022/08/06 06:58:22;;;;;;;11.00;10.45;;;21.80;99.90;;;;;;5011580;28;20200;-73
2022/08/06 07:00:49;;;;;;;13.43;12.73;;;21.80;99.90;;;;;;5011410;28;20265;-72
2022/08/06 07:03:18;;;;;;;28.08;26.45;;;22.20;99.90;;;;;;5010892;28;20176;-72
2022/08/06 07:05:47;;;;;;;28.30;26.90;;;22.90;99.90;;;;;;4992706;28;20180;-72
2022/08/06 07:08:16;;;;;;;14.23;13.38;;;23.60;99.90;;;;;;4991447;28;20203;-73
2022/08/06 07:10:44;;;;;;;4.40;4.20;;;24.00;99.90;;;;;;4998641;28;20179;-75
2022/08/06 07:13:11;;;;;;;5.47;5.13;;;23.90;99.90;;;;;;5011594;28;20600;-74
2022/08/06 07:15:40;;;;;;;4.82;4.53;;;23.50;99.90;;;;;;5012057;28;20192;-75
2022/08/06 07:18:07;;;;;;;8.07;7.60;;;23.80;99.90;;;;;;5011111;28;20204;-75
2022/08/06 07:20:34;;;;;;;6.78;6.47;;;24.10;99.90;;;;;;5011255;28;20242;-75
2022/08/06 07:23:07;;;;;;;5.18;4.78;;;23.40;99.90;;;;;;4993497;28;20249;-74
2022/08/06 07:25:37;;;;;;;5.40;5.15;;;23.00;99.90;;;;;;5014011;28;20175;-74
2022/08/06 07:28:04;;;;;;;6.97;6.57;;;23.60;99.90;;;;;;5033085;23;20235;-85
2022/08/06 07:30:32;;;;;;;10.40;9.90;;;23.70;99.90;;;;;;5016506;28;20196;-85
2022/08/06 07:32:59;;;;;;;15.30;14.55;;;24.30;99.90;;;;;;5017222;28;20266;-83
2022/08/06 07:35:25;;;;;;;11.68;11.00;;;24.70;99.90;;;;;;5017280;28;20595;-83
2022/08/06 07:38:03;;;;;;;15.07;14.27;;;24.20;99.90;;;;;;5015832;28;20211;-84
2022/08/06 07:40:43;;;;;;;14.00;13.10;;;24.50;99.90;;;;;;5015085;28;20277;-83
2022/08/06 07:43:21;;;;;;;10.52;9.65;;;23.60;99.90;;;;;;5016959;28;20199;-87
2022/08/06 07:45:50;;;;;;;6.80;6.25;;;22.90;99.90;;;;;;4999940;28;20194;-82
2022/08/06 07:48:18;;;;;;;5.82;5.32;;;22.80;99.90;;;;;;5015816;28;20254;-82
2022/08/06 07:50:49;;;;;;;4.95;4.65;;;22.60;99.90;;;;;;5036837;28;20183;-83
2022/08/06 07:53:16;;;;;;;7.72;7.15;;;23.20;99.90;;;;;;5029168;28;20386;-83
2022/08/06 07:55:43;;;;;;;10.20;9.35;;;23.80;99.90;;;;;;5015486;28;20183;-83
2022/08/06 07:58:10;;;;;;;9.85;9.35;;;24.00;99.90;;;;;;5015458;28;20634;-84
2022/08/06 08:00:42;;;;;;;10.55;9.95;;;24.00;99.90;;;;;;5018822;28;20261;-83
2022/08/06 08:08:40;;;;;;;4.57;4.22;;;26.00;99.70;;;;;;5014953;28;20202;-84
2022/08/06 08:11:07;;;;;;;4.20;3.90;;;25.90;97.70;;;;;;5014916;28;20648;-83
2022/08/06 08:13:34;;;;;;;5.97;5.40;;;25.10;98.80;;;;;;5012910;28;20671;-82
2022/08/06 08:16:00;;;;;;;7.85;7.28;;;24.70;99.60;;;;;;5012823;28;20262;-82
2022/08/06 08:18:31;;;;;;;21.90;20.73;;;24.60;98.80;;;;;;5011950;28;20203;-82
2022/08/06 08:21:02;;;;;;;23.58;22.38;;;23.80;99.80;;;;;;5013848;28;20632;-82
2022/08/06 08:23:32;;;;;;;13.70;13.00;;;24.20;99.90;;;;;;5013630;28;20184;-82
2022/08/06 08:26:00;;;;;;;11.60;11.05;;;24.60;98.80;;;;;;5013698;28;20574;-82
2022/08/06 08:28:26;;;;;;;16.60;15.68;;;24.50;98.20;;;;;;5007485;28;20219;-81
2022/08/06 08:30:52;;;;;;;10.88;10.27;;;24.40;98.40;;;;;;5009926;28;20286;-81
2022/08/06 08:33:19;;;;;;;17.23;16.30;;;24.40;98.20;;;;;;5011563;28;20214;-81
2022/08/06 08:35:48;;;;;;;15.55;14.40;;;24.50;98.80;;;;;;5026741;28;20176;-79
2022/08/06 08:38:14;;;;;;;18.88;17.75;;;24.50;98.70;;;;;;5034752;28;20195;-79
2022/08/06 08:40:42;;;;;;;11.10;10.32;;;24.30;98.50;;;;;;5022436;28;20282;-79
2022/08/06 08:43:11;;;;;;;19.52;18.42;;;24.20;97.50;;;;;;5014403;28;20189;-80
2022/08/06 08:45:39;;;;;;;19.23;18.20;;;24.00;98.10;;;;;;5015945;28;20177;-79
2022/08/06 08:48:06;;;;;;;13.00;12.20;;;24.40;98.10;;;;;;5014525;28;20435;-79
2022/08/06 08:50:34;;;;;;;9.70;8.88;;;24.80;97.10;;;;;;5017291;28;20663;-79
2022/08/06 08:53:13;;;;;;;14.52;13.50;;;24.30;97.00;;;;;;5013011;28;20607;-80
2022/08/06 08:55:40;;;;;;;13.82;13.13;;;24.50;96.90;;;;;;5013955;28;20191;-80
2022/08/06 08:58:07;;;;;;;19.67;18.80;;;24.50;96.70;;;;;;4994122;28;20208;-79
2022/08/06 09:00:34;;;;;;;17.50;16.45;;;24.30;97.40;;;;;;4994523;28;20225;-80
2022/08/06 09:03:02;;;;;;;5.80;5.40;;;24.80;97.40;;;;;;5007502;28;20176;-79
2022/08/06 09:05:30;;;;;;;5.53;4.95;;;25.30;95.10;;;;;;5020373;28;20180;-76
2022/08/06 09:07:57;;;;;;;4.88;4.57;;;24.90;95.80;;;;;;5015602;28;20206;-77
2022/08/06 09:10:24;;;;;;;7.10;6.55;;;25.10;95.00;;;;;;5012280;28;20882;-78
2022/08/06 09:12:50;;;;;;;4.43;4.22;;;25.00;92.90;;;;;;4996402;28;20561;-77
2022/08/06 09:15:17;;;;;;;5.00;4.75;;;24.20;94.00;;;;;;4993280;28;20768;-77
2022/08/06 09:17:47;;;;;;;5.97;5.07;;;24.10;93.90;;;;;;5008191;28;20196;-77
2022/08/06 09:20:13;;;;;;;5.22;4.75;;;24.40;94.00;;;;;;5009276;28;20259;-78
2022/08/06 09:22:39;;;;;;;5.05;4.82;;;24.70;93.30;;;;;;5010806;28;20199;-78
2022/08/06 09:25:05;;;;;;;5.63;5.22;;;25.30;92.60;;;;;;5007275;28;20527;-78
2022/08/06 09:27:34;;;;;;;9.20;8.57;;;25.30;92.00;;;;;;5003613;28;20223;-77
2022/08/06 09:30:04;;;;;;;9.85;9.43;;;25.50;91.40;;;;;;5021826;28;20172;-77
2022/08/06 09:32:45;;;;;;;9.82;9.18;;;25.50;90.90;;;;;;5015298;28;20207;-78
2022/08/06 09:35:21;;;;;;;9.93;9.48;;;25.90;90.50;;;;;;5021409;28;20191;-78
2022/08/06 09:37:49;;;;;;;8.32;7.68;;;26.60;89.90;;;;;;5023246;28;20195;-77
2022/08/06 09:40:17;;;;;;;7.90;7.55;;;26.10;88.70;;;;;;5025863;28;20197;-77
2022/08/06 09:42:46;;;;;;;10.35;9.85;;;25.80;87.50;;;;;;5018552;28;20180;-77
2022/08/06 09:45:14;;;;;;;12.57;11.93;;;25.20;89.90;;;;;;5020581;28;20187;-78
2022/08/06 09:47:40;;;;;;;10.18;9.65;;;25.30;89.90;;;;;;5013745;28;20235;-80
2022/08/06 09:50:07;;;;;;;10.55;9.73;;;25.60;87.80;;;;;;5014612;28;20176;-80
2022/08/06 09:52:34;;;;;;;8.95;8.15;;;25.50;88.20;;;;;;5021536;28;20188;-80
2022/08/06 09:55:00;;;;;;;6.72;6.32;;;26.00;88.50;;;;;;5017059;28;20557;-80
2022/08/06 09:57:41;;;;;;;5.72;5.47;;;26.50;84.50;;;;;;5014568;28;20616;-80
2022/08/06 10:00:08;;;;;;;6.20;5.65;;;26.60;85.50;;;;;;5015672;28;20184;-79
2022/08/06 10:02:34;;;;;;;5.80;5.40;;;26.50;83.20;;;;;;5016594;28;20211;-80
2022/08/06 10:05:11;;;;;;;7.15;6.85;;;26.30;85.30;;;;;;5017165;28;20270;-80
2022/08/06 10:07:37;;;;;;;7.40;7.07;;;26.40;84.30;;;;;;5015464;28;20706;-80
2022/08/06 10:10:05;;;;;;;4.72;4.32;;;27.00;84.10;;;;;;5016262;28;20479;-79
2022/08/06 10:12:32;;;;;;;4.40;3.95;;;27.50;79.30;;;;;;5016224;28;20315;-79
2022/08/06 10:14:59;;;;;;;4.80;4.40;;;26.90;78.60;;;;;;5015031;28;20203;-79
2022/08/06 10:17:25;;;;;;;4.60;4.30;;;26.70;79.80;;;;;;5014649;28;20271;-79
2022/08/06 10:20:05;;;;;;;4.57;4.28;;;26.90;80.50;;;;;;5015002;28;20205;-78
2022/08/06 10:22:31;;;;;;;5.15;4.85;;;27.20;79.50;;;;;;5019413;28;20215;-77
2022/08/06 10:25:01;;;;;;;4.65;4.38;;;27.70;76.00;;;;;;5021147;28;20175;-77
2022/08/06 10:27:31;;;;;;;7.03;4.80;;;27.30;75.00;;;;;;5015182;28;20576;-79
2022/08/06 10:30:05;;;;;;;4.95;4.50;;;26.80;78.70;;;;;;5016804;28;20188;-78
2022/08/06 10:32:53;;;;;;;6.13;5.63;;;26.70;78.50;;;;;;5018861;28;20563;-77
2022/08/06 10:35:23;;;;;;;4.40;4.10;;;26.50;77.30;;;;;;5014456;28;20597;-78
2022/08/06 10:37:56;;;;;;;5.30;5.00;;;26.00;78.90;;;;;;5015442;28;20215;-76
2022/08/06 10:40:23;;;;;;;4.63;4.43;;;26.30;77.30;;;;;;5017599;28;20180;-79
2022/08/06 10:42:52;;;;;;;6.75;6.25;;;26.80;74.70;;;;;;5016185;28;20195;-78
2022/08/06 10:45:18;;;;;;;5.25;4.95;;;27.70;76.30;;;;;;5016508;28;20267;-78
2022/08/06 10:47:46;;;;;;;5.35;5.05;;;29.40;70.90;;;;;;5014066;28;20210;-78
2022/08/06 10:50:13;;;;;;;7.57;7.07;;;30.80;64.90;;;;;;5015442;28;20187;-77
2022/08/06 10:52:40;;;;;;;5.15;4.78;;;29.40;63.70;;;;;;5014474;28;20183;-78
2022/08/06 10:55:08;;;;;;;5.50;5.00;;;28.00;68.30;;;;;;5012726;28;20213;-78
2022/08/06 10:57:34;;;;;;;4.57;4.28;;;28.00;70.00;;;;;;5012011;28;20576;-76
2022/08/06 11:00:03;;;;;;;7.97;7.28;;;27.50;70.80;;;;;;5011988;28;20187;-77
2022/08/06 11:02:37;;;;;;;6.65;6.25;;;26.90;72.10;;;;;;4992995;28;20204;-77
2022/08/06 11:05:15;;;;;;;6.82;6.47;;;27.40;72.50;;;;;;5011695;28;20710;-79
2022/08/06 11:08:05;;;;;;;7.22;6.82;;;27.20;72.60;;;;;;5015080;28;20222;-79
2022/08/06 11:10:31;;;;;;;7.07;6.57;;;26.80;72.70;;;;;;5015351;28;20644;-79
2022/08/06 11:13:09;;;;;;;8.32;7.78;;;26.30;73.90;;;;;;5012485;28;20600;-77
2022/08/06 11:15:40;;;;;;;10.35;8.05;;;26.70;74.20;;;;;;5026223;28;20186;-77
2022/08/06 11:18:10;;;;;;;6.80;6.40;;;28.20;72.40;;;;;;5024307;28;20231;-76
2022/08/06 11:20:44;;;;;;;6.15;5.65;;;29.20;68.70;;;;;;5003215;28;20311;-80
2022/08/06 11:23:13;;;;;;;5.40;5.10;;;29.40;65.10;;;;;;5007402;28;20189;-80
2022/08/06 11:25:41;;;;;;;5.13;4.88;;;29.00;66.90;;;;;;5023303;28;20178;-76
2022/08/06 11:28:09;;;;;;;7.05;6.45;;;29.10;66.30;;;;;;5012393;28;20242;-79
2022/08/06 11:30:43;;;;;;;5.25;4.88;;;29.80;63.00;;;;;;5011543;28;20642;-79
2022/08/06 11:33:10;;;;;;;8.18;7.47;;;29.50;63.00;;;;;;5013950;28;20216;-77
2022/08/06 11:35:35;;;;;;;9.73;9.23;;;29.90;63.50;;;;;;5011523;28;20198;-79
2022/08/06 11:38:09;;;;;;;16.95;16.02;;;30.00;62.20;;;;;;5011449;28;20203;-78
2022/08/06 11:41:15;;;;;;;22.70;21.55;;;30.00;62.10;;;;;;5012445;28;20180;-77
2022/08/06 11:44:05;;;;;;;25.70;24.45;;;30.00;61.90;;;;;;4976338;28;20185;-77
2022/08/06 11:46:39;;;;;;;22.75;21.40;;;30.40;60.20;;;;;;5014197;28;20242;-78
2022/08/06 11:49:18;;;;;;;22.15;20.95;;;30.60;61.00;;;;;;5009764;28;20254;-78
2022/08/06 11:51:47;;;;;;;15.65;14.75;;;30.20;60.80;;;;;;5011165;28;20179;-78
2022/08/06 11:54:16;;;;;;;22.42;21.20;;;30.60;59.50;;;;;;5011149;28;20184;-78
2022/08/06 11:57:07;;;;;;;16.83;15.93;;;30.70;58.70;;;;;;5012249;28;20195;-77
2022/08/06 11:59:45;;;;;;;18.48;17.63;;;30.50;59.70;;;;;;4991880;28;20258;-77
2022/08/06 12:02:13;;;;;;;18.77;17.88;;;29.60;59.90;;;;;;4991701;28;20312;-77
2022/08/06 12:04:44;;;;;;;17.60;16.80;;;29.40;61.60;;;;;;4992448;28;20183;-77
2022/08/06 12:07:30;;;;;;;16.98;16.08;;;29.20;61.60;;;;;;4996483;28;20176;-78
2022/08/06 12:10:08;;;;;;;15.25;14.43;;;29.70;61.60;;;;;;4993777;28;20184;-78
2022/08/06 12:12:48;;;;;;;10.18;9.73;;;30.40;59.30;;;;;;5012230;28;20187;-78
2022/08/06 12:15:22;;;;;;;30.20;28.83;;;31.60;55.90;;;;;;5010854;28;20223;-78
2022/08/06 12:17:54;;;;;;;112.38;106.82;;;33.00;54.00;;;;;;5010147;28;20676;-77
2022/08/06 12:20:34;;;;;;;76.53;72.50;;;33.30;51.30;;;;;;5011565;28;20554;-77
2022/08/06 12:23:02;;;;;;;101.22;96.22;;;32.90;53.90;;;;;;5011868;28;20184;-78
2022/08/06 12:25:30;;;;;;;120.38;114.65;;;33.50;52.80;;;;;;5011545;28;20179;-78
2022/08/06 12:27:57;;;;;;;177.43;168.88;;;33.90;51.70;;;;;;5010753;28;20215;-77
2022/08/06 12:30:23;;;;;;;190.43;181.38;;;33.80;50.70;;;;;;5010659;28;20246;-77
2022/08/06 12:32:48;;;;;;;159.52;151.88;;;33.70;50.70;;;;;;5010127;28;20179;-78
2022/08/06 12:35:14;;;;;;;177.57;169.00;;;33.70;50.40;;;;;;5010985;28;20668;-78
2022/08/06 12:37:43;;;;;;;164.90;156.85;;;32.30;51.20;;;;;;5009851;28;20202;-77
2022/08/06 12:40:26;;;;;;;180.93;172.00;;;31.90;53.10;;;;;;5011344;28;20202;-77
2022/08/06 12:42:59;;;;;;;175.20;166.77;;;32.70;51.10;;;;;;5011927;28;20233;-77
2022/08/06 12:45:27;;;;;;;152.07;144.82;;;33.70;50.10;;;;;;5011825;28;20298;-77
2022/08/06 12:47:57;;;;;;;157.82;150.05;;;34.40;48.00;;;;;;5010033;28;20287;-78
2022/08/06 12:50:23;;;;;;;180.88;171.90;;;34.50;48.80;;;;;;5011570;28;20566;-77
2022/08/06 12:53:03;;;;;;;139.55;132.93;;;33.80;47.50;;;;;;5026044;28;20235;-77
2022/08/06 12:55:30;;;;;;;135.48;128.90;;;31.80;49.60;;;;;;5010278;28;20176;-77